METAR Data
IDs: Format: Raw Decoded Include TAF

Data at: 1107 UTC 18 Jan 2022

KHZE 181055Z AUTO 24015KT 10SM BKN100 01/M01 A2941 RMK AO2
KHZE 181035Z AUTO 29006KT 10SM CLR M00/M02 A2942 RMK AO2
KHZE 181015Z AUTO 28010G15KT 10SM CLR 01/M01 A2941 RMK AO2
KHZE 180955Z AUTO 25007KT 10SM CLR 01/M01 A2941 RMK AO2
KHZE 180935Z AUTO 26007KT 10SM CLR M00/M02 A2942 RMK AO2
KHZE 180915Z AUTO 26007KT 10SM CLR M01/M02 A2941 RMK AO2
KHZE 180855Z AUTO 28007G15KT 10SM CLR 01/M01 A2942 RMK AO2
KHZE 180835Z AUTO 25009KT 10SM SCT043 SCT049 01/M01 A2942 RMK AO2
KHZE 180815Z AUTO 24012KT 10SM SCT043 BKN049 BKN060 01/M01 A2942 RMK AO2
KHZE 180755Z AUTO 24009KT 10SM FEW049 SCT060 M02/M02 A2944 RMK AO2
KHZE 180735Z AUTO 24008KT 10SM CLR M02/M02 A2944 RMK AO2
KHZE 180715Z AUTO 25007KT 10SM CLR M04/M04 A2944 RMK AO2
KHZE 180655Z AUTO 26007KT 10SM CLR M04/M03 A2945 RMK AO2
KHZE 180635Z AUTO 24004KT 10SM CLR M05/M05 A2946 RMK AO2
KHZE 180615Z AUTO 00000KT 10SM CLR M06/M06 A2947 RMK AO2
KHZE 180555Z AUTO 00000KT 10SM CLR M05/M05 A2948 RMK AO2
KHZE 180535Z AUTO 00000KT 10SM CLR M05/M05 A2949 RMK AO2
KHZE 180515Z AUTO 00000KT 10SM CLR M06/M06 A2950 RMK AO2
KHZE 180455Z AUTO 00000KT 10SM CLR M06/M06 A2951 RMK AO2
KHZE 180435Z AUTO 00000KT 10SM CLR M06/M06 A2952 RMK AO2
KHZE 180415Z AUTO 00000KT 10SM CLR M06/M06 A2954 RMK AO2
KHZE 180355Z AUTO 00000KT 10SM CLR M06/M06 A2955 RMK AO2
KHZE 180335Z AUTO 00000KT 10SM CLR M06/M06 A2955 RMK AO2
KHZE 180315Z AUTO 00000KT 10SM CLR M05/M05 A2956 RMK AO2
KHZE 180255Z AUTO 00000KT 10SM CLR M05/M05 A2958 RMK AO2
KHZE 180235Z AUTO 00000KT 10SM CLR M05/M05 A2960 RMK AO2
KHZE 180215Z AUTO 00000KT 10SM CLR M05/M05 A2961 RMK AO2
KHZE 180155Z AUTO 00000KT 10SM CLR M05/M05 A2961 RMK AO2
KHZE 180135Z AUTO 00000KT 10SM CLR M04/M04 A2962 RMK AO2
KHZE 180115Z AUTO 00000KT 10SM CLR M03/M03 A2963 RMK AO2
KHZE 180055Z AUTO 3/80000004KT 10SM CLR M04/M04 A2963 RMK AO2
KHZE 180035Z AUTO 12005KT 10SM CLR M02/M02 A2964 RMK AO2
KHZE 180015Z AUTO 14006KT 10SM CLR M03/M03 A2965 RMK AO2
KHZE 172355Z AUTO 00000KT 10SM CLR M03/M03 A2965 RMK AO2
KHZE 172335Z AUTO 00000KT 10SM FEW100 M02/M02 A2966 RMK AO2
KHZE 172315Z AUTO 00000KT 10SM SCT100 M01/M02 A2967 RMK AO2
KHZE 172255Z AUTO 00000KT 10SM CLR 01/M01 A2966 RMK AO2
KHZE 172235Z AUTO 00000KT 10SM CLR 02/M00 A2967 RMK AO2
KHZE 172215Z AUTO 00000KT 10SM BKN110 02/M00 A2967 RMK AO2
KHZE 172155Z AUTO 22007KT 10SM SCT110 02/M00 A2967 RMK AO2
KHZE 172135Z AUTO 21004KT 10SM CLR 02/M01 A2969 RMK AO2
KHZE 172115Z AUTO 00000KT 10SM FEW110 02/M01 A2969 RMK AO2
KHZE 172055Z AUTO 00000KT 10SM CLR 02/M01 A2969 RMK AO2
KHZE 172035Z AUTO 26004KT 10SM CLR 02/M00 A2969 RMK AO2
KHZE 172015Z AUTO 26004KT 10SM CLR 02/M01 A2970 RMK AO2
KHZE 171955Z AUTO 26005KT 10SM CLR 02/M01 A2970 RMK AO2
KHZE 171935Z AUTO 26005KT 10SM CLR 01/M01 A2971 RMK AO2
KHZE 171915Z AUTO 24005KT 10SM CLR 01/M02 A2971 RMK AO2
KHZE 171855Z AUTO 24006KT 10SM CLR 00/M02 A2972 RMK AO2
KHZE 171835Z AUTO 00000KT 10SM CLR M00/M03 A2973 RMK AO2
KHZE 171815Z AUTO 00000KT 10SM CLR 00/M03 A2972 RMK AO2
KHZE 171755Z AUTO 00000KT 10SM CLR M01/M03 A2973 RMK AO2
KHZE 171735Z AUTO 00000KT 10SM CLR M01/M03 A2974 RMK AO2
KHZE 171715Z AUTO 00000KT 10SM CLR M02/M03 A2974 RMK AO2
KHZE 171655Z AUTO 00000KT 10SM CLR M03/M03 A2974 RMK AO2
KHZE 171635Z AUTO 00000KT 10SM CLR M03/M04 A2974 RMK AO2
KHZE 171615Z AUTO 00000KT 10SM CLR M04/M04 A2974 RMK AO2
KHZE 171555Z AUTO 00000KT 10SM CLR M05/M05 A2974 RMK AO2
KHZE 171535Z AUTO 00000KT 10SM CLR M05/M05 A2974 RMK AO2
KHZE 171515Z AUTO 00000KT 10SM CLR M05/M05 A2974 RMK AO2
KHZE 171455Z AUTO 00000KT 10SM FEW090 M05/M05 A2973 RMK AO2
KHZE 171435Z AUTO 00000KT 10SM BKN090 M05/M04 A2973 RMK AO2
KHZE 171415Z AUTO 00000KT 10SM OVC090 M04/M04 A2973 RMK AO2
KHZE 171355Z AUTO 00000KT 10SM OVC090 M04/M04 A2973 RMK AO2
KHZE 171335Z AUTO 00000KT 10SM SCT070 OVC090 M04/M04 A2974 RMK AO2
KHZE 171315Z AUTO 00000KT 10SM FEW047 OVC070 M04/M04 A2975 RMK AO2
KHZE 171255Z AUTO 00000KT 10SM SCT041 BKN070 OVC075 M04/M04 A2976 RMK AO2
KHZE 171235Z AUTO 00000KT 10SM OVC065 M04/M04 A2976 RMK AO2
KHZE 171215Z AUTO 00000KT 10SM FEW043 SCT049 OVC065 M04/M04 A2976 RMK AO2
KHZE 171155Z AUTO 00000KT 10SM FEW043 SCT049 OVC070 M04/M04 A2975 RMK AO2
KHZE 171135Z AUTO 00000KT 10SM OVC070 M04/M04 A2976 RMK AO2
KHZE 171115Z AUTO 07003KT 10SM BKN065 OVC075 M04/M04 A2977 RMK AO2
KHZE 171055Z AUTO 06004KT 10SM FEW060 OVC075 M04/M04 A2978 RMK AO2
KHZE 171035Z AUTO 00000KT 10SM FEW050 BKN065 OVC075 M04/M04 A2978 RMK AO2
KHZE 171015Z AUTO 00000KT 10SM SCT048 BKN065 OVC070 M05/M05 A2979 RMK AO2
KHZE 170955Z AUTO 00000KT 10SM SCT055 OVC075 M05/M05 A2980 RMK AO2
KHZE 170935Z AUTO 00000KT 10SM SCT065 OVC075 M05/M05 A2981 RMK AO2
KHZE 170915Z AUTO 00000KT 10SM OVC070 M05/M05 A2981 RMK AO2
KHZE 170855Z AUTO 28003KT 10SM OVC075 M05/M05 A2982 RMK AO2
KHZE 170835Z AUTO 00000KT 10SM BKN075 OVC110 M05/M05 A2984 RMK AO2
KHZE 170815Z AUTO 00000KT 10SM OVC110 M05/M05 A2984 RMK AO2
KHZE 170755Z AUTO 00000KT 10SM BKN100 BKN120 M06/M06 A2985 RMK AO2
KHZE 170735Z AUTO 00000KT 10SM FEW015 BKN110 M05/M05 A2986 RMK AO2
KHZE 170715Z AUTO 17004KT 10SM FEW017 OVC110 M05/M06 A2987 RMK AO2
KHZE 170655Z AUTO 00000KT 10SM BKN100 BKN120 M06/M06 A2988 RMK AO2
KHZE 170635Z AUTO 18004KT 10SM BKN110 M05/M05 A2989 RMK AO2
KHZE 170615Z AUTO 17003KT 10SM BKN110 M05/M05 A2989 RMK AO2
KHZE 170555Z AUTO 00000KT 10SM BKN120 M07/M07 A2990 RMK AO2
KHZE 170535Z AUTO 19003KT 10SM SCT120 M07/M06 A2990 RMK AO2
KHZE 170515Z AUTO 20006KT 10SM CLR M07/M07 A2991 RMK AO2
KHZE 170455Z AUTO 19004KT 10SM CLR M08/M08 A2991 RMK AO2
KHZE 170435Z AUTO 21003KT 10SM CLR M09/M09 A2992 RMK AO2
KHZE 170415Z AUTO 20003KT 10SM CLR M08/M08 A2992 RMK AO2
KHZE 170355Z AUTO 21004KT 10SM CLR M09/M09 A2992 RMK AO2
KHZE 170335Z AUTO 17003KT 10SM CLR M07/M07 A2993 RMK AO2
KHZE 170315Z AUTO 23004KT 10SM CLR M05/M05 A2994 RMK AO2
KHZE 170255Z AUTO 26003KT 10SM CLR M04/M04 A2995 RMK AO2
KHZE 170235Z AUTO 26004KT 10SM CLR M04/M04 A2995 RMK AO2
KHZE 170215Z AUTO 24004KT 10SM CLR M05/M05 A2996 RMK AO2
KHZE 170155Z AUTO 25007KT 10SM CLR M04/M04 A2996 RMK AO2
KHZE 170135Z AUTO 25007KT 10SM CLR M03/M04 A2995 RMK AO2
KHZE 170115Z AUTO 23008KT 10SM CLR M03/M03 A2996 RMK AO2
KHZE 170055Z AUTO 23008KT 10SM CLR M02/M03 A2996 RMK AO2
KHZE 170035Z AUTO 23007KT 10SM CLR M03/M03 A2996 RMK AO2
KHZE 170015Z AUTO 24007KT 10SM CLR M01/M03 A2996 RMK AO2
KHZE 162355Z AUTO 23008KT 10SM CLR M00/M02 A2996 RMK AO2
KHZE 162335Z AUTO 21007KT 10SM CLR M01/M02 A2998 RMK AO2
KHZE 162315Z AUTO 25006KT 10SM CLR 00/M02 A2998 RMK AO2